sensor_id;sensor_type;location;lat;lon;timestamp;P1;durP1;ratioP1;P2;durP2;ratioP2
44486;SDS011;30191;50.908;6.962;2022-08-18T00:01:26;15.43;;;13.95;;
44486;SDS011;30191;50.908;6.962;2022-08-18T00:03:52;16.33;;;14.73;;
44486;SDS011;30191;50.908;6.962;2022-08-18T00:06:18;16.95;;;15.32;;
44486;SDS011;30191;50.908;6.962;2022-08-18T00:08:44;17.73;;;15.82;;
44486;SDS011;30191;50.908;6.962;2022-08-18T00:11:10;16.48;;;14.88;;
44486;SDS011;30191;50.908;6.962;2022-08-18T00:13:36;18.63;;;16.75;;
44486;SDS011;30191;50.908;6.962;2022-08-18T00:16:01;19.02;;;17.33;;
44486;SDS011;30191;50.908;6.962;2022-08-18T00:18:27;18.55;;;16.65;;
44486;SDS011;30191;50.908;6.962;2022-08-18T00:20:53;17.95;;;16.30;;
44486;SDS011;30191;50.908;6.962;2022-08-18T00:23:19;17.48;;;15.88;;
44486;SDS011;30191;50.908;6.962;2022-08-18T00:25:44;18.65;;;16.85;;
44486;SDS011;30191;50.908;6.962;2022-08-18T00:28:10;20.23;;;18.23;;
44486;SDS011;30191;50.908;6.962;2022-08-18T00:30:38;18.08;;;16.38;;
44486;SDS011;30191;50.908;6.962;2022-08-18T00:33:04;20.83;;;17.08;;
44486;SDS011;30191;50.908;6.962;2022-08-18T00:35:30;18.15;;;16.50;;
44486;SDS011;30191;50.908;6.962;2022-08-18T00:38:00;17.88;;;16.17;;
44486;SDS011;30191;50.908;6.962;2022-08-18T00:40:32;17.65;;;15.98;;
44486;SDS011;30191;50.908;6.962;2022-08-18T00:43:10;17.80;;;15.88;;
44486;SDS011;30191;50.908;6.962;2022-08-18T00:45:39;16.75;;;15.05;;
44486;SDS011;30191;50.908;6.962;2022-08-18T00:48:07;18.55;;;16.42;;
44486;SDS011;30191;50.908;6.962;2022-08-18T00:50:39;18.50;;;16.60;;
44486;SDS011;30191;50.908;6.962;2022-08-18T00:53:27;17.67;;;15.85;;
44486;SDS011;30191;50.908;6.962;2022-08-18T00:55:58;18.77;;;16.88;;
44486;SDS011;30191;50.908;6.962;2022-08-18T00:58:37;17.70;;;16.00;;
44486;SDS011;30191;50.908;6.962;2022-08-18T01:01:13;18.55;;;16.63;;
44486;SDS011;30191;50.908;6.962;2022-08-18T01:03:40;20.88;;;17.92;;
44486;SDS011;30191;50.908;6.962;2022-08-18T01:06:16;19.50;;;17.48;;
44486;SDS011;30191;50.908;6.962;2022-08-18T01:08:45;18.80;;;16.80;;
44486;SDS011;30191;50.908;6.962;2022-08-18T01:11:11;20.27;;;17.65;;
44486;SDS011;30191;50.908;6.962;2022-08-18T01:13:38;22.75;;;16.90;;
44486;SDS011;30191;50.908;6.962;2022-08-18T01:16:07;19.13;;;17.08;;
44486;SDS011;30191;50.908;6.962;2022-08-18T01:18:51;19.77;;;17.83;;
44486;SDS011;30191;50.908;6.962;2022-08-18T01:21:38;21.10;;;19.05;;
44486;SDS011;30191;50.908;6.962;2022-08-18T01:24:20;20.70;;;18.63;;
44486;SDS011;30191;50.908;6.962;2022-08-18T01:27:09;20.30;;;18.33;;
44486;SDS011;30191;50.908;6.962;2022-08-18T01:29:36;23.27;;;19.63;;
44486;SDS011;30191;50.908;6.962;2022-08-18T01:32:02;22.42;;;19.70;;
44486;SDS011;30191;50.908;6.962;2022-08-18T01:34:28;22.60;;;20.20;;
44486;SDS011;30191;50.908;6.962;2022-08-18T01:36:53;25.33;;;19.92;;
44486;SDS011;30191;50.908;6.962;2022-08-18T01:39:20;22.00;;;19.77;;
44486;SDS011;30191;50.908;6.962;2022-08-18T01:41:47;22.00;;;19.80;;
44486;SDS011;30191;50.908;6.962;2022-08-18T01:44:12;23.10;;;20.63;;
44486;SDS011;30191;50.908;6.962;2022-08-18T01:46:39;23.75;;;21.23;;
44486;SDS011;30191;50.908;6.962;2022-08-18T01:49:06;26.55;;;21.73;;
44486;SDS011;30191;50.908;6.962;2022-08-18T01:51:33;23.55;;;21.15;;
44486;SDS011;30191;50.908;6.962;2022-08-18T01:54:01;25.05;;;22.55;;
44486;SDS011;30191;50.908;6.962;2022-08-18T01:56:28;25.67;;;23.15;;
44486;SDS011;30191;50.908;6.962;2022-08-18T01:58:54;25.40;;;22.70;;
44486;SDS011;30191;50.908;6.962;2022-08-18T02:01:20;24.85;;;22.42;;
44486;SDS011;30191;50.908;6.962;2022-08-18T02:03:48;26.15;;;23.40;;
44486;SDS011;30191;50.908;6.962;2022-08-18T02:06:19;28.95;;;24.33;;
44486;SDS011;30191;50.908;6.962;2022-08-18T02:08:45;25.50;;;23.00;;
44486;SDS011;30191;50.908;6.962;2022-08-18T02:11:11;26.17;;;23.40;;
44486;SDS011;30191;50.908;6.962;2022-08-18T02:13:37;26.35;;;23.52;;
44486;SDS011;30191;50.908;6.962;2022-08-18T02:16:04;26.05;;;23.42;;
44486;SDS011;30191;50.908;6.962;2022-08-18T02:18:34;26.75;;;23.95;;
44486;SDS011;30191;50.908;6.962;2022-08-18T02:21:06;26.13;;;23.35;;
44486;SDS011;30191;50.908;6.962;2022-08-18T02:23:34;25.98;;;23.17;;
44486;SDS011;30191;50.908;6.962;2022-08-18T02:26:04;26.25;;;23.42;;
44486;SDS011;30191;50.908;6.962;2022-08-18T02:28:34;25.60;;;23.00;;
44486;SDS011;30191;50.908;6.962;2022-08-18T02:31:07;26.58;;;23.85;;
44486;SDS011;30191;50.908;6.962;2022-08-18T02:33:35;27.02;;;24.10;;
44486;SDS011;30191;50.908;6.962;2022-08-18T02:36:01;27.08;;;24.27;;
44486;SDS011;30191;50.908;6.962;2022-08-18T02:38:28;31.08;;;25.50;;
44486;SDS011;30191;50.908;6.962;2022-08-18T02:40:58;27.77;;;24.77;;
44486;SDS011;30191;50.908;6.962;2022-08-18T02:43:25;28.65;;;24.58;;
44486;SDS011;30191;50.908;6.962;2022-08-18T02:45:52;27.30;;;24.38;;
44486;SDS011;30191;50.908;6.962;2022-08-18T02:48:18;27.80;;;25.20;;
44486;SDS011;30191;50.908;6.962;2022-08-18T02:51:00;27.05;;;24.25;;
44486;SDS011;30191;50.908;6.962;2022-08-18T02:53:29;27.92;;;24.98;;
44486;SDS011;30191;50.908;6.962;2022-08-18T02:56:02;27.95;;;25.10;;
44486;SDS011;30191;50.908;6.962;2022-08-18T02:58:58;27.85;;;24.98;;
44486;SDS011;30191;50.908;6.962;2022-08-18T03:01:33;27.70;;;24.98;;
44486;SDS011;30191;50.908;6.962;2022-08-18T03:04:02;29.08;;;26.08;;
44486;SDS011;30191;50.908;6.962;2022-08-18T03:06:30;29.25;;;26.25;;
44486;SDS011;30191;50.908;6.962;2022-08-18T03:08:57;29.20;;;26.23;;
44486;SDS011;30191;50.908;6.962;2022-08-18T03:11:27;29.17;;;26.38;;
44486;SDS011;30191;50.908;6.962;2022-08-18T03:16:20;29.02;;;26.10;;
44486;SDS011;30191;50.908;6.962;2022-08-18T03:18:47;29.55;;;26.70;;
44486;SDS011;30191;50.908;6.962;2022-08-18T03:21:14;30.40;;;26.92;;
44486;SDS011;30191;50.908;6.962;2022-08-18T03:23:42;33.42;;;28.30;;
44486;SDS011;30191;50.908;6.962;2022-08-18T03:26:09;30.52;;;27.38;;
44486;SDS011;30191;50.908;6.962;2022-08-18T03:28:37;30.92;;;27.65;;
44486;SDS011;30191;50.908;6.962;2022-08-18T03:31:05;31.67;;;28.23;;
44486;SDS011;30191;50.908;6.962;2022-08-18T03:33:31;33.15;;;28.83;;
44486;SDS011;30191;50.908;6.962;2022-08-18T03:36:02;32.83;;;28.30;;
44486;SDS011;30191;50.908;6.962;2022-08-18T03:38:40;31.00;;;27.67;;
44486;SDS011;30191;50.908;6.962;2022-08-18T03:41:07;31.00;;;25.73;;
44486;SDS011;30191;50.908;6.962;2022-08-18T03:43:38;28.45;;;25.42;;
44486;SDS011;30191;50.908;6.962;2022-08-18T03:46:05;28.30;;;25.40;;
44486;SDS011;30191;50.908;6.962;2022-08-18T03:48:36;30.13;;;25.15;;
44486;SDS011;30191;50.908;6.962;2022-08-18T03:51:05;29.40;;;26.38;;
44486;SDS011;30191;50.908;6.962;2022-08-18T03:53:37;30.83;;;27.67;;
44486;SDS011;30191;50.908;6.962;2022-08-18T03:56:08;33.72;;;29.02;;
44486;SDS011;30191;50.908;6.962;2022-08-18T03:58:40;31.63;;;28.13;;
44486;SDS011;30191;50.908;6.962;2022-08-18T04:01:09;32.85;;;28.63;;
44486;SDS011;30191;50.908;6.962;2022-08-18T04:03:43;33.97;;;30.38;;
44486;SDS011;30191;50.908;6.962;2022-08-18T04:06:17;35.42;;;30.42;;
44486;SDS011;30191;50.908;6.962;2022-08-18T04:08:44;33.05;;;29.55;;
44486;SDS011;30191;50.908;6.962;2022-08-18T04:11:10;32.50;;;29.08;;
44486;SDS011;30191;50.908;6.962;2022-08-18T04:13:37;35.33;;;31.52;;
44486;SDS011;30191;50.908;6.962;2022-08-18T04:16:03;33.40;;;29.95;;
44486;SDS011;30191;50.908;6.962;2022-08-18T04:18:29;35.15;;;28.77;;
44486;SDS011;30191;50.908;6.962;2022-08-18T04:21:00;34.58;;;30.98;;
44486;SDS011;30191;50.908;6.962;2022-08-18T04:23:32;35.38;;;31.85;;
44486;SDS011;30191;50.908;6.962;2022-08-18T04:25:59;34.85;;;31.35;;
44486;SDS011;30191;50.908;6.962;2022-08-18T04:28:26;35.47;;;31.70;;
44486;SDS011;30191;50.908;6.962;2022-08-18T04:30:52;38.13;;;33.50;;
44486;SDS011;30191;50.908;6.962;2022-08-18T04:33:19;41.72;;;36.55;;
44486;SDS011;30191;50.908;6.962;2022-08-18T04:35:45;41.97;;;36.75;;
44486;SDS011;30191;50.908;6.962;2022-08-18T04:38:11;55.38;;;46.28;;
44486;SDS011;30191;50.908;6.962;2022-08-18T04:40:37;59.22;;;47.55;;
44486;SDS011;30191;50.908;6.962;2022-08-18T04:43:05;54.80;;;45.20;;
44486;SDS011;30191;50.908;6.962;2022-08-18T04:45:36;60.90;;;47.60;;
44486;SDS011;30191;50.908;6.962;2022-08-18T04:48:04;68.53;;;50.45;;
44486;SDS011;30191;50.908;6.962;2022-08-18T04:50:30;67.90;;;51.88;;
44486;SDS011;30191;50.908;6.962;2022-08-18T04:52:56;68.65;;;52.63;;
44486;SDS011;30191;50.908;6.962;2022-08-18T04:55:50;65.97;;;50.97;;
44486;SDS011;30191;50.908;6.962;2022-08-18T04:58:18;69.45;;;51.08;;
44486;SDS011;30191;50.908;6.962;2022-08-18T05:00:45;68.32;;;52.30;;
44486;SDS011;30191;50.908;6.962;2022-08-18T05:03:11;66.65;;;49.45;;
44486;SDS011;30191;50.908;6.962;2022-08-18T05:05:37;67.10;;;49.75;;
44486;SDS011;30191;50.908;6.962;2022-08-18T05:08:03;63.05;;;47.13;;
44486;SDS011;30191;50.908;6.962;2022-08-18T05:10:29;64.60;;;46.40;;
44486;SDS011;30191;50.908;6.962;2022-08-18T05:12:55;68.05;;;48.85;;
44486;SDS011;30191;50.908;6.962;2022-08-18T05:15:21;68.57;;;49.03;;
44486;SDS011;30191;50.908;6.962;2022-08-18T05:17:47;69.07;;;47.55;;
44486;SDS011;30191;50.908;6.962;2022-08-18T05:20:12;62.92;;;47.35;;
44486;SDS011;30191;50.908;6.962;2022-08-18T05:22:40;66.82;;;49.90;;
44486;SDS011;30191;50.908;6.962;2022-08-18T05:25:07;68.55;;;50.53;;
44486;SDS011;30191;50.908;6.962;2022-08-18T05:27:35;73.70;;;50.45;;
44486;SDS011;30191;50.908;6.962;2022-08-18T05:30:03;68.50;;;49.85;;
44486;SDS011;30191;50.908;6.962;2022-08-18T05:32:38;68.85;;;48.17;;
44486;SDS011;30191;50.908;6.962;2022-08-18T05:35:07;68.30;;;49.55;;
44486;SDS011;30191;50.908;6.962;2022-08-18T05:40:07;77.38;;;51.15;;
44486;SDS011;30191;50.908;6.962;2022-08-18T05:42:34;73.35;;;50.53;;
44486;SDS011;30191;50.908;6.962;2022-08-18T05:45:03;77.80;;;53.13;;
44486;SDS011;30191;50.908;6.962;2022-08-18T05:47:34;78.82;;;52.72;;
44486;SDS011;30191;50.908;6.962;2022-08-18T05:50:05;82.57;;;55.33;;
44486;SDS011;30191;50.908;6.962;2022-08-18T05:52:42;80.28;;;51.75;;
44486;SDS011;30191;50.908;6.962;2022-08-18T05:55:24;81.68;;;52.97;;
44486;SDS011;30191;50.908;6.962;2022-08-18T05:58:20;82.65;;;54.67;;
44486;SDS011;30191;50.908;6.962;2022-08-18T06:00:56;88.47;;;53.72;;
44486;SDS011;30191;50.908;6.962;2022-08-18T06:03:39;86.28;;;55.83;;
44486;SDS011;30191;50.908;6.962;2022-08-18T06:06:12;81.45;;;52.13;;
44486;SDS011;30191;50.908;6.962;2022-08-18T06:09:27;91.10;;;56.10;;
44486;SDS011;30191;50.908;6.962;2022-08-18T06:11:39;89.63;;;57.22;;
44486;SDS011;30191;50.908;6.962;2022-08-18T06:14:06;96.78;;;60.05;;
44486;SDS011;30191;50.908;6.962;2022-08-18T06:19:25;91.35;;;55.67;;
44486;SDS011;30191;50.908;6.962;2022-08-18T06:25:02;90.93;;;55.28;;
44486;SDS011;30191;50.908;6.962;2022-08-18T06:27:39;90.72;;;53.47;;
44486;SDS011;30191;50.908;6.962;2022-08-18T06:30:24;89.07;;;54.95;;
44486;SDS011;30191;50.908;6.962;2022-08-18T06:33:09;90.47;;;55.63;;
44486;SDS011;30191;50.908;6.962;2022-08-18T06:41:14;98.38;;;57.70;;
44486;SDS011;30191;50.908;6.962;2022-08-18T06:49:10;96.93;;;58.40;;
44486;SDS011;30191;50.908;6.962;2022-08-18T06:51:41;100.72;;;57.78;;
44486;SDS011;30191;50.908;6.962;2022-08-18T06:54:10;99.13;;;57.65;;
44486;SDS011;30191;50.908;6.962;2022-08-18T06:56:52;99.75;;;59.00;;
44486;SDS011;30191;50.908;6.962;2022-08-18T06:59:20;94.72;;;56.17;;
44486;SDS011;30191;50.908;6.962;2022-08-18T07:06:55;88.15;;;56.60;;
44486;SDS011;30191;50.908;6.962;2022-08-18T07:09:33;87.10;;;55.35;;
44486;SDS011;30191;50.908;6.962;2022-08-18T07:12:06;86.93;;;53.17;;
44486;SDS011;30191;50.908;6.962;2022-08-18T07:14:42;83.70;;;53.30;;
44486;SDS011;30191;50.908;6.962;2022-08-18T07:17:10;82.20;;;52.35;;
44486;SDS011;30191;50.908;6.962;2022-08-18T07:19:38;77.53;;;49.83;;
44486;SDS011;30191;50.908;6.962;2022-08-18T07:27:48;60.72;;;40.97;;
44486;SDS011;30191;50.908;6.962;2022-08-18T07:33:04;58.70;;;38.40;;
44486;SDS011;30191;50.908;6.962;2022-08-18T07:35:42;48.40;;;37.30;;
44486;SDS011;30191;50.908;6.962;2022-08-18T07:38:21;52.15;;;37.83;;
44486;SDS011;30191;50.908;6.962;2022-08-18T07:40:54;46.13;;;37.08;;
44486;SDS011;30191;50.908;6.962;2022-08-18T07:43:28;49.67;;;38.58;;
44486;SDS011;30191;50.908;6.962;2022-08-18T07:46:11;47.58;;;37.53;;
44486;SDS011;30191;50.908;6.962;2022-08-18T07:48:41;52.17;;;38.20;;
44486;SDS011;30191;50.908;6.962;2022-08-18T07:53:46;51.00;;;36.35;;
44486;SDS011;30191;50.908;6.962;2022-08-18T07:56:22;43.55;;;35.25;;
44486;SDS011;30191;50.908;6.962;2022-08-18T07:58:55;44.53;;;34.50;;
44486;SDS011;30191;50.908;6.962;2022-08-18T08:01:35;43.38;;;33.47;;
44486;SDS011;30191;50.908;6.962;2022-08-18T08:06:46;47.58;;;33.45;;
44486;SDS011;30191;50.908;6.962;2022-08-18T08:12:33;42.83;;;33.28;;
44486;SDS011;30191;50.908;6.962;2022-08-18T08:15:47;46.55;;;32.67;;
44486;SDS011;30191;50.908;6.962;2022-08-18T08:20:59;43.60;;;32.42;;
44486;SDS011;30191;50.908;6.962;2022-08-18T08:26:23;45.75;;;32.15;;
44486;SDS011;30191;50.908;6.962;2022-08-18T08:36:54;42.63;;;30.40;;
44486;SDS011;30191;50.908;6.962;2022-08-18T08:42:11;40.15;;;30.35;;
44486;SDS011;30191;50.908;6.962;2022-08-18T08:44:46;35.17;;;28.35;;
44486;SDS011;30191;50.908;6.962;2022-08-18T08:47:17;37.45;;;29.92;;
44486;SDS011;30191;50.908;6.962;2022-08-18T08:52:30;34.28;;;29.08;;
44486;SDS011;30191;50.908;6.962;2022-08-18T09:00:18;37.40;;;28.38;;
44486;SDS011;30191;50.908;6.962;2022-08-18T09:05:29;38.28;;;27.50;;
44486;SDS011;30191;50.908;6.962;2022-08-18T09:24:50;31.65;;;27.00;;
44486;SDS011;30191;50.908;6.962;2022-08-18T09:30:06;28.73;;;25.63;;
44486;SDS011;30191;50.908;6.962;2022-08-18T09:32:42;30.73;;;25.30;;
44486;SDS011;30191;50.908;6.962;2022-08-18T09:35:35;28.50;;;25.08;;
44486;SDS011;30191;50.908;6.962;2022-08-18T09:38:18;31.63;;;24.48;;
44486;SDS011;30191;50.908;6.962;2022-08-18T09:41:08;26.80;;;22.83;;
44486;SDS011;30191;50.908;6.962;2022-08-18T09:44:09;26.05;;;23.30;;
44486;SDS011;30191;50.908;6.962;2022-08-18T09:54:25;26.15;;;23.15;;
44486;SDS011;30191;50.908;6.962;2022-08-18T10:02:10;32.00;;;25.55;;
44486;SDS011;30191;50.908;6.962;2022-08-18T10:04:41;31.73;;;24.92;;
44486;SDS011;30191;50.908;6.962;2022-08-18T10:09:57;27.30;;;21.98;;
44486;SDS011;30191;50.908;6.962;2022-08-18T10:15:38;26.40;;;22.08;;
44486;SDS011;30191;50.908;6.962;2022-08-18T10:21:15;26.60;;;23.25;;
44486;SDS011;30191;50.908;6.962;2022-08-18T10:39:44;28.85;;;23.98;;
44486;SDS011;30191;50.908;6.962;2022-08-18T10:44:47;27.08;;;23.90;;
44486;SDS011;30191;50.908;6.962;2022-08-18T10:47:21;26.90;;;23.90;;
44486;SDS011;30191;50.908;6.962;2022-08-18T10:49:51;29.20;;;24.33;;
44486;SDS011;30191;50.908;6.962;2022-08-18T10:52:30;27.58;;;24.70;;
44486;SDS011;30191;50.908;6.962;2022-08-18T10:57:35;26.85;;;23.83;;
44486;SDS011;30191;50.908;6.962;2022-08-18T11:00:17;26.10;;;22.52;;
44486;SDS011;30191;50.908;6.962;2022-08-18T11:05:19;24.90;;;20.48;;
44486;SDS011;30191;50.908;6.962;2022-08-18T11:07:49;26.60;;;20.57;;
44486;SDS011;30191;50.908;6.962;2022-08-18T11:10:35;23.38;;;20.00;;
44486;SDS011;30191;50.908;6.962;2022-08-18T11:18:34;21.88;;;19.52;;
44486;SDS011;30191;50.908;6.962;2022-08-18T11:26:35;22.60;;;20.30;;
44486;SDS011;30191;50.908;6.962;2022-08-18T11:32:39;22.23;;;19.30;;
44486;SDS011;30191;50.908;6.962;2022-08-18T11:37:26;22.35;;;19.95;;
44486;SDS011;30191;50.908;6.962;2022-08-18T11:40:09;22.98;;;20.52;;
44486;SDS011;30191;50.908;6.962;2022-08-18T11:42:58;24.33;;;19.92;;
44486;SDS011;30191;50.908;6.962;2022-08-18T11:45:55;23.88;;;21.58;;
44486;SDS011;30191;50.908;6.962;2022-08-18T11:48:37;24.55;;;22.05;;
44486;SDS011;30191;50.908;6.962;2022-08-18T11:58:49;23.30;;;20.80;;
44486;SDS011;30191;50.908;6.962;2022-08-18T12:01:29;22.38;;;20.05;;
44486;SDS011;30191;50.908;6.962;2022-08-18T12:04:06;22.15;;;19.83;;
44486;SDS011;30191;50.908;6.962;2022-08-18T12:06:40;22.35;;;19.90;;
44486;SDS011;30191;50.908;6.962;2022-08-18T12:09:40;20.67;;;18.13;;
44486;SDS011;30191;50.908;6.962;2022-08-18T12:12:32;19.38;;;17.38;;
44486;SDS011;30191;50.908;6.962;2022-08-18T12:17:39;22.38;;;19.95;;
44486;SDS011;30191;50.908;6.962;2022-08-18T12:20:06;21.13;;;19.10;;
44486;SDS011;30191;50.908;6.962;2022-08-18T12:22:33;21.88;;;19.50;;
44486;SDS011;30191;50.908;6.962;2022-08-18T12:25:01;20.15;;;18.08;;
44486;SDS011;30191;50.908;6.962;2022-08-18T12:27:29;18.88;;;16.98;;
44486;SDS011;30191;50.908;6.962;2022-08-18T12:29:55;21.67;;;18.20;;
44486;SDS011;30191;50.908;6.962;2022-08-18T12:32:24;20.83;;;18.38;;
44486;SDS011;30191;50.908;6.962;2022-08-18T12:34:51;18.88;;;16.88;;
44486;SDS011;30191;50.908;6.962;2022-08-18T12:37:18;21.40;;;17.48;;
44486;SDS011;30191;50.908;6.962;2022-08-18T12:39:48;20.92;;;18.83;;
44486;SDS011;30191;50.908;6.962;2022-08-18T12:42:15;22.00;;;19.70;;
44486;SDS011;30191;50.908;6.962;2022-08-18T12:44:41;20.23;;;18.23;;
44486;SDS011;30191;50.908;6.962;2022-08-18T12:47:11;22.60;;;20.20;;
44486;SDS011;30191;50.908;6.962;2022-08-18T12:49:42;22.73;;;20.33;;
44486;SDS011;30191;50.908;6.962;2022-08-18T12:52:09;22.52;;;18.13;;
44486;SDS011;30191;50.908;6.962;2022-08-18T12:54:35;20.15;;;18.17;;
44486;SDS011;30191;50.908;6.962;2022-08-18T12:57:01;20.77;;;17.98;;
44486;SDS011;30191;50.908;6.962;2022-08-18T12:59:30;22.92;;;19.17;;
44486;SDS011;30191;50.908;6.962;2022-08-18T13:01:55;23.13;;;19.27;;
44486;SDS011;30191;50.908;6.962;2022-08-18T13:04:21;22.05;;;19.75;;
44486;SDS011;30191;50.908;6.962;2022-08-18T13:06:48;21.10;;;18.15;;
44486;SDS011;30191;50.908;6.962;2022-08-18T13:09:17;19.50;;;16.88;;
44486;SDS011;30191;50.908;6.962;2022-08-18T13:11:44;18.38;;;16.42;;
44486;SDS011;30191;50.908;6.962;2022-08-18T13:14:10;20.15;;;18.15;;
44486;SDS011;30191;50.908;6.962;2022-08-18T13:16:38;21.42;;;17.67;;
44486;SDS011;30191;50.908;6.962;2022-08-18T13:19:06;19.42;;;17.48;;
44486;SDS011;30191;50.908;6.962;2022-08-18T13:21:32;19.75;;;16.88;;
44486;SDS011;30191;50.908;6.962;2022-08-18T13:23:58;18.23;;;16.33;;
44486;SDS011;30191;50.908;6.962;2022-08-18T13:26:26;17.13;;;15.38;;
44486;SDS011;30191;50.908;6.962;2022-08-18T13:28:53;19.27;;;17.27;;
44486;SDS011;30191;50.908;6.962;2022-08-18T13:31:19;19.08;;;17.17;;
44486;SDS011;30191;50.908;6.962;2022-08-18T13:33:45;19.38;;;17.55;;
44486;SDS011;30191;50.908;6.962;2022-08-18T13:36:11;17.30;;;15.23;;
44486;SDS011;30191;50.908;6.962;2022-08-18T13:38:36;18.15;;;15.25;;
44486;SDS011;30191;50.908;6.962;2022-08-18T13:41:04;16.60;;;14.30;;
44486;SDS011;30191;50.908;6.962;2022-08-18T13:43:31;13.95;;;12.63;;
44486;SDS011;30191;50.908;6.962;2022-08-18T13:46:00;14.43;;;12.13;;
44486;SDS011;30191;50.908;6.962;2022-08-18T13:48:26;14.10;;;12.63;;
44486;SDS011;30191;50.908;6.962;2022-08-18T13:50:54;12.52;;;11.43;;
44486;SDS011;30191;50.908;6.962;2022-08-18T13:53:22;12.88;;;11.57;;
44486;SDS011;30191;50.908;6.962;2022-08-18T13:55:48;12.25;;;10.88;;
44486;SDS011;30191;50.908;6.962;2022-08-18T13:58:14;10.98;;;9.90;;
44486;SDS011;30191;50.908;6.962;2022-08-18T14:00:40;12.25;;;10.73;;
44486;SDS011;30191;50.908;6.962;2022-08-18T14:03:06;12.95;;;11.70;;
44486;SDS011;30191;50.908;6.962;2022-08-18T14:05:36;12.30;;;10.53;;
44486;SDS011;30191;50.908;6.962;2022-08-18T14:08:02;11.25;;;9.85;;
44486;SDS011;30191;50.908;6.962;2022-08-18T14:10:29;12.57;;;8.73;;
44486;SDS011;30191;50.908;6.962;2022-08-18T14:12:56;10.20;;;8.38;;
44486;SDS011;30191;50.908;6.962;2022-08-18T14:15:24;10.07;;;9.07;;
44486;SDS011;30191;50.908;6.962;2022-08-18T14:17:51;10.10;;;8.82;;
44486;SDS011;30191;50.908;6.962;2022-08-18T14:20:17;8.43;;;7.60;;
44486;SDS011;30191;50.908;6.962;2022-08-18T14:23:02;9.98;;;8.05;;
44486;SDS011;30191;50.908;6.962;2022-08-18T14:25:47;8.40;;;7.70;;
44486;SDS011;30191;50.908;6.962;2022-08-18T14:28:32;10.18;;;7.20;;
44486;SDS011;30191;50.908;6.962;2022-08-18T14:30:59;11.10;;;8.50;;
44486;SDS011;30191;50.908;6.962;2022-08-18T14:33:27;8.52;;;7.72;;
44486;SDS011;30191;50.908;6.962;2022-08-18T14:35:54;9.20;;;8.07;;
44486;SDS011;30191;50.908;6.962;2022-08-18T14:38:20;9.07;;;8.27;;
44486;SDS011;30191;50.908;6.962;2022-08-18T14:40:46;11.15;;;8.13;;
44486;SDS011;30191;50.908;6.962;2022-08-18T14:43:13;9.15;;;8.35;;
44486;SDS011;30191;50.908;6.962;2022-08-18T14:45:41;10.63;;;8.02;;
44486;SDS011;30191;50.908;6.962;2022-08-18T14:48:12;8.43;;;7.72;;
44486;SDS011;30191;50.908;6.962;2022-08-18T14:50:41;8.98;;;7.35;;
44486;SDS011;30191;50.908;6.962;2022-08-18T14:53:09;7.38;;;6.75;;
44486;SDS011;30191;50.908;6.962;2022-08-18T14:55:37;7.72;;;6.90;;
44486;SDS011;30191;50.908;6.962;2022-08-18T14:58:03;8.23;;;7.30;;
44486;SDS011;30191;50.908;6.962;2022-08-18T15:00:29;7.38;;;6.72;;
44486;SDS011;30191;50.908;6.962;2022-08-18T15:02:55;8.05;;;7.35;;
44486;SDS011;30191;50.908;6.962;2022-08-18T15:05:22;7.18;;;6.55;;
44486;SDS011;30191;50.908;6.962;2022-08-18T15:07:48;7.10;;;6.47;;
44486;SDS011;30191;50.908;6.962;2022-08-18T15:10:13;7.30;;;6.70;;
44486;SDS011;30191;50.908;6.962;2022-08-18T15:12:41;7.65;;;6.95;;
44486;SDS011;30191;50.908;6.962;2022-08-18T15:15:08;7.35;;;6.38;;
44486;SDS011;30191;50.908;6.962;2022-08-18T15:17:39;8.40;;;7.05;;
44486;SDS011;30191;50.908;6.962;2022-08-18T15:20:06;8.38;;;6.13;;
44486;SDS011;30191;50.908;6.962;2022-08-18T15:22:37;6.97;;;6.07;;
44486;SDS011;30191;50.908;6.962;2022-08-18T15:25:23;8.10;;;6.18;;
44486;SDS011;30191;50.908;6.962;2022-08-18T15:28:08;7.15;;;6.25;;
44486;SDS011;30191;50.908;6.962;2022-08-18T15:30:42;8.48;;;6.95;;
44486;SDS011;30191;50.908;6.962;2022-08-18T15:33:09;8.85;;;7.53;;
44486;SDS011;30191;50.908;6.962;2022-08-18T15:35:37;7.88;;;7.07;;
44486;SDS011;30191;50.908;6.962;2022-08-18T15:38:04;8.05;;;7.28;;
44486;SDS011;30191;50.908;6.962;2022-08-18T15:40:31;8.25;;;6.93;;
44486;SDS011;30191;50.908;6.962;2022-08-18T15:42:57;10.05;;;7.60;;
44486;SDS011;30191;50.908;6.962;2022-08-18T15:45:30;8.27;;;7.57;;
44486;SDS011;30191;50.908;6.962;2022-08-18T15:48:02;8.38;;;7.45;;
44486;SDS011;30191;50.908;6.962;2022-08-18T15:50:28;9.07;;;7.70;;
44486;SDS011;30191;50.908;6.962;2022-08-18T15:52:58;7.38;;;6.80;;
44486;SDS011;30191;50.908;6.962;2022-08-18T15:55:28;10.32;;;7.30;;
44486;SDS011;30191;50.908;6.962;2022-08-18T15:57:55;8.50;;;7.60;;
44486;SDS011;30191;50.908;6.962;2022-08-18T16:00:22;7.95;;;7.35;;
44486;SDS011;30191;50.908;6.962;2022-08-18T16:02:53;7.70;;;7.00;;
44486;SDS011;30191;50.908;6.962;2022-08-18T16:05:21;7.88;;;7.10;;
44486;SDS011;30191;50.908;6.962;2022-08-18T16:07:49;8.95;;;8.10;;
44486;SDS011;30191;50.908;6.962;2022-08-18T16:10:17;9.05;;;8.05;;
44486;SDS011;30191;50.908;6.962;2022-08-18T16:12:44;14.25;;;8.52;;
44486;SDS011;30191;50.908;6.962;2022-08-18T16:15:12;8.95;;;7.65;;
44486;SDS011;30191;50.908;6.962;2022-08-18T16:17:42;9.00;;;8.02;;
44486;SDS011;30191;50.908;6.962;2022-08-18T16:20:08;9.88;;;8.77;;
44486;SDS011;30191;50.908;6.962;2022-08-18T16:22:35;10.48;;;9.40;;
44486;SDS011;30191;50.908;6.962;2022-08-18T16:25:05;9.80;;;8.88;;
44486;SDS011;30191;50.908;6.962;2022-08-18T16:27:32;11.70;;;9.18;;
44486;SDS011;30191;50.908;6.962;2022-08-18T16:29:59;11.82;;;8.93;;
44486;SDS011;30191;50.908;6.962;2022-08-18T16:32:28;11.70;;;8.77;;
44486;SDS011;30191;50.908;6.962;2022-08-18T16:34:55;10.05;;;9.10;;
44486;SDS011;30191;50.908;6.962;2022-08-18T16:37:21;10.45;;;9.32;;
44486;SDS011;30191;50.908;6.962;2022-08-18T16:39:47;11.00;;;9.65;;
44486;SDS011;30191;50.908;6.962;2022-08-18T16:42:12;13.88;;;10.35;;
44486;SDS011;30191;50.908;6.962;2022-08-18T16:44:39;10.35;;;9.45;;
44486;SDS011;30191;50.908;6.962;2022-08-18T16:47:04;10.75;;;9.70;;
44486;SDS011;30191;50.908;6.962;2022-08-18T16:49:31;11.18;;;10.13;;
44486;SDS011;30191;50.908;6.962;2022-08-18T16:52:00;10.32;;;9.30;;
44486;SDS011;30191;50.908;6.962;2022-08-18T16:54:27;11.73;;;10.25;;
44486;SDS011;30191;50.908;6.962;2022-08-18T16:56:53;11.00;;;9.90;;
44486;SDS011;30191;50.908;6.962;2022-08-18T16:59:19;11.48;;;10.27;;
44486;SDS011;30191;50.908;6.962;2022-08-18T17:02:03;10.57;;;9.60;;
44486;SDS011;30191;50.908;6.962;2022-08-18T17:04:47;11.35;;;10.25;;
44486;SDS011;30191;50.908;6.962;2022-08-18T17:07:15;10.95;;;9.90;;
44486;SDS011;30191;50.908;6.962;2022-08-18T17:09:41;11.90;;;10.32;;
44486;SDS011;30191;50.908;6.962;2022-08-18T17:12:07;12.23;;;10.43;;
44486;SDS011;30191;50.908;6.962;2022-08-18T17:14:32;15.00;;;9.75;;
44486;SDS011;30191;50.908;6.962;2022-08-18T17:16:58;12.18;;;10.88;;
44486;SDS011;30191;50.908;6.962;2022-08-18T17:19:26;12.43;;;11.13;;
44486;SDS011;30191;50.908;6.962;2022-08-18T17:21:55;12.73;;;11.32;;
44486;SDS011;30191;50.908;6.962;2022-08-18T17:24:21;11.77;;;10.60;;
44486;SDS011;30191;50.908;6.962;2022-08-18T17:32:49;12.40;;;10.13;;
44486;SDS011;30191;50.908;6.962;2022-08-18T17:37:52;10.85;;;9.75;;